Time;durP1;ratioP1;P1;durP2;ratioP2;P2;SDS_P1;SDS_P2;PMS_P1;PMS_P2;Temp;Humidity;BMP_temperature;BMP_pressure;BME280_temperature;BME280_humidity;BME280_pressure;Samples;Min_cycle;Max_cycle;Signal;HPM_P1;HPM_P2
2023/07/19 00:01:11;;;;;;;4.30;3.90;;;26.00;56.70;;;;;;5033335;28;20456;-72
2023/07/19 00:03:39;;;;;;;4.63;4.23;;;26.00;56.70;;;;;;5066260;28;20433;-72
2023/07/19 00:06:08;;;;;;;6.37;3.73;;;26.00;56.80;;;;;;5046981;28;20433;-72
2023/07/19 00:08:41;;;;;;;6.83;3.80;;;25.90;56.70;;;;;;5245261;22;20486;-76
2023/07/19 00:11:11;;;;;;;4.03;3.67;;;25.90;56.70;;;;;;5050498;28;20434;-75
2023/07/19 00:13:49;;;;;;;4.20;3.80;;;25.90;56.70;;;;;;5648768;22;20458;-74
2023/07/19 00:16:17;;;;;;;4.03;3.73;;;25.90;56.70;;;;;;5098058;28;20508;-74
2023/07/19 00:18:43;;;;;;;3.70;3.40;;;25.90;56.80;;;;;;5073074;28;20502;-74
2023/07/19 00:21:16;;;;;;;4.00;3.70;;;25.90;56.80;;;;;;5068964;28;20454;-75
2023/07/19 00:23:42;;;;;;;3.90;3.60;;;25.90;56.80;;;;;;5089827;28;20389;-76
2023/07/19 00:26:08;;;;;;;4.63;4.23;;;25.90;56.80;;;;;;5090959;28;20417;-76
2023/07/19 00:28:34;;;;;;;5.60;3.80;;;25.80;56.70;;;;;;5090663;28;20440;-76
2023/07/19 00:31:03;;;;;;;4.63;4.23;;;25.90;56.90;;;;;;5072624;28;20177;-75
2023/07/19 00:33:30;;;;;;;4.17;3.77;;;25.80;56.80;;;;;;5090356;28;20423;-75
2023/07/19 00:35:56;;;;;;;5.17;3.63;;;25.80;56.80;;;;;;5089471;28;20409;-76
2023/07/19 00:38:27;;;;;;;4.77;4.00;;;25.80;56.90;;;;;;5089562;28;20481;-76
2023/07/19 00:40:56;;;;;;;4.57;4.03;;;25.80;56.90;;;;;;5089017;28;20432;-75
2023/07/19 00:43:23;;;;;;;3.73;3.47;;;25.80;56.90;;;;;;5090210;28;20443;-75
2023/07/19 00:48:41;;;;;;;3.70;3.40;;;25.70;56.90;;;;;;5277593;23;20530;-74
2023/07/19 00:51:08;;;;;;;3.90;3.60;;;25.70;56.90;;;;;;4980863;28;20481;-74
2023/07/19 00:53:40;;;;;;;4.70;3.83;;;25.70;57.00;;;;;;4996572;28;20430;-74
2023/07/19 00:56:08;;;;;;;3.80;3.50;;;25.60;57.00;;;;;;5012612;28;20407;-73
2023/07/19 00:58:38;;;;;;;5.37;4.10;;;25.60;57.00;;;;;;4985092;28;20464;-74
2023/07/19 01:01:05;;;;;;;6.73;4.40;;;25.60;57.00;;;;;;5029142;28;20432;-73
2023/07/19 01:03:33;;;;;;;4.97;4.33;;;25.60;57.00;;;;;;4980272;28;20569;-74
2023/07/19 01:06:05;;;;;;;4.80;4.40;;;25.60;57.10;;;;;;4980384;28;20422;-74
2023/07/19 01:08:31;;;;;;;6.43;4.87;;;25.60;57.10;;;;;;5011786;28;20449;-74
2023/07/19 01:10:57;;;;;;;4.93;4.43;;;25.60;57.10;;;;;;4977355;28;20428;-73
2023/07/19 01:13:25;;;;;;;4.27;3.97;;;25.60;57.10;;;;;;4992773;28;20428;-73
2023/07/19 01:15:51;;;;;;;5.07;4.30;;;25.50;57.70;;;;;;4976632;28;20445;-74
2023/07/19 01:18:20;;;;;;;4.17;3.80;;;25.50;57.10;;;;;;5013972;28;20455;-73
2023/07/19 01:20:47;;;;;;;7.10;4.40;;;25.50;57.10;;;;;;4978236;28;20540;-73
2023/07/19 01:23:13;;;;;;;7.03;4.40;;;25.50;57.10;;;;;;5010651;28;20420;-74
2023/07/19 01:25:39;;;;;;;4.73;4.33;;;25.50;57.20;;;;;;4992836;28;20447;-74
2023/07/19 01:28:08;;;;;;;5.60;4.13;;;25.50;57.20;;;;;;4995788;28;20447;-73
2023/07/19 01:30:35;;;;;;;4.53;4.17;;;25.40;57.20;;;;;;5011984;28;20539;-74
2023/07/19 01:33:02;;;;;;;4.83;4.33;;;25.40;57.20;;;;;;4996040;28;20427;-73
2023/07/19 01:35:33;;;;;;;6.33;4.10;;;25.40;57.20;;;;;;5011408;28;20427;-74
2023/07/19 01:38:02;;;;;;;4.23;3.87;;;25.40;57.20;;;;;;4980256;28;20463;-74
2023/07/19 01:40:27;;;;;;;4.77;4.37;;;25.40;57.20;;;;;;4994853;28;20820;-74
2023/07/19 01:42:53;;;;;;;5.40;4.27;;;25.40;57.20;;;;;;5002049;28;20417;-74
2023/07/19 01:45:19;;;;;;;4.50;3.97;;;25.40;57.30;;;;;;4992390;28;20303;-73
2023/07/19 01:47:47;;;;;;;4.40;4.00;;;25.30;57.20;;;;;;5008326;28;20963;-74
2023/07/19 01:50:13;;;;;;;5.00;4.43;;;25.40;57.30;;;;;;4976062;28;20475;-74
2023/07/19 01:52:42;;;;;;;4.00;3.70;;;25.30;57.30;;;;;;4992133;28;20523;-73
2023/07/19 01:55:10;;;;;;;4.47;4.13;;;25.30;57.30;;;;;;4976199;28;20436;-74
2023/07/19 01:57:39;;;;;;;4.07;3.67;;;25.30;57.30;;;;;;4992091;28;20460;-73
2023/07/19 02:00:05;;;;;;;4.67;4.27;;;25.30;57.30;;;;;;5003748;28;20439;-74
2023/07/19 02:02:45;;;;;;;4.17;3.70;;;25.20;57.20;;;;;;5011433;28;20223;-74
2023/07/19 02:05:11;;;;;;;4.10;3.80;;;25.20;57.30;;;;;;4996962;28;20458;-73
2023/07/19 02:07:44;;;;;;;5.03;4.30;;;25.20;57.30;;;;;;5008616;28;20452;-73
2023/07/19 02:10:13;;;;;;;4.10;3.80;;;25.20;57.30;;;;;;5004540;28;20467;-74
2023/07/19 02:12:39;;;;;;;4.73;4.33;;;25.20;57.30;;;;;;5029034;28;20423;-74
2023/07/19 02:15:08;;;;;;;4.17;3.77;;;25.20;57.30;;;;;;5011677;28;20494;-74
2023/07/19 02:17:37;;;;;;;4.50;4.10;;;25.20;57.30;;;;;;5029355;28;20919;-74
2023/07/19 02:20:06;;;;;;;4.17;3.83;;;25.10;57.30;;;;;;4983931;28;20947;-73
2023/07/19 02:22:32;;;;;;;4.63;3.63;;;25.10;57.30;;;;;;4998843;28;20431;-74
2023/07/19 02:25:00;;;;;;;4.37;3.97;;;25.10;57.30;;;;;;5015554;28;20447;-73
2023/07/19 02:27:26;;;;;;;4.57;4.23;;;25.10;57.30;;;;;;4998895;28;20434;-74
2023/07/19 02:29:52;;;;;;;4.33;4.03;;;25.10;57.30;;;;;;4988808;28;20838;-73
2023/07/19 02:32:20;;;;;;;4.40;4.00;;;25.10;57.30;;;;;;4995479;28;20424;-74
2023/07/19 02:34:48;;;;;;;4.23;3.90;;;25.00;57.30;;;;;;4987150;28;20846;-74
2023/07/19 02:37:14;;;;;;;4.07;3.67;;;25.00;57.40;;;;;;5013141;28;20534;-74
2023/07/19 02:39:42;;;;;;;3.83;3.53;;;25.00;57.40;;;;;;5003782;28;20685;-74
2023/07/19 02:42:07;;;;;;;4.40;4.00;;;25.00;57.50;;;;;;4979618;28;20455;-74
2023/07/19 02:44:33;;;;;;;3.90;3.60;;;25.00;57.40;;;;;;4995093;28;20423;-73
2023/07/19 02:46:59;;;;;;;4.53;4.07;;;25.00;57.50;;;;;;4995103;28;20186;-74
2023/07/19 02:49:28;;;;;;;5.03;3.97;;;25.00;57.80;;;;;;4983865;28;20475;-73
2023/07/19 02:51:54;;;;;;;5.20;3.90;;;25.00;57.60;;;;;;5031290;28;20175;-74
2023/07/19 02:54:20;;;;;;;3.60;3.40;;;25.00;57.60;;;;;;5014492;28;20534;-74
2023/07/19 02:56:48;;;;;;;3.73;3.53;;;24.90;58.20;;;;;;5014376;28;20213;-73
2023/07/19 02:59:14;;;;;;;4.30;3.90;;;24.90;57.60;;;;;;4993961;28;20446;-73
2023/07/19 03:01:41;;;;;;;4.07;3.77;;;24.90;57.70;;;;;;4994732;28;20442;-73
2023/07/19 03:04:07;;;;;;;4.00;3.70;;;24.90;57.70;;;;;;4984767;28;20436;-73
2023/07/19 03:06:33;;;;;;;4.17;3.87;;;24.90;57.80;;;;;;5014612;28;20831;-74
2023/07/19 03:09:02;;;;;;;4.90;4.50;;;24.80;57.70;;;;;;5030392;28;20517;-74
2023/07/19 03:11:28;;;;;;;4.33;3.93;;;24.80;57.70;;;;;;5014528;28;20279;-73
2023/07/19 03:13:59;;;;;;;4.17;3.87;;;24.80;57.80;;;;;;5014162;28;21143;-74
2023/07/19 03:16:25;;;;;;;4.40;4.10;;;24.80;57.80;;;;;;5014071;28;20945;-74
2023/07/19 03:18:53;;;;;;;4.57;4.17;;;24.80;57.80;;;;;;4997461;28;20470;-74
2023/07/19 03:21:20;;;;;;;4.47;4.17;;;24.80;57.80;;;;;;5031831;28;20215;-74
2023/07/19 03:23:46;;;;;;;4.10;3.80;;;24.80;57.70;;;;;;5007687;28;20435;-74
2023/07/19 03:26:13;;;;;;;6.00;4.33;;;24.80;57.80;;;;;;4978397;28;20424;-74
2023/07/19 03:28:41;;;;;;;4.50;4.13;;;24.80;57.80;;;;;;4978277;28;20801;-74
2023/07/19 03:31:11;;;;;;;5.03;4.50;;;24.70;57.80;;;;;;4978167;28;20483;-74
2023/07/19 03:33:37;;;;;;;4.53;4.20;;;24.70;57.70;;;;;;4996404;28;20447;-74
2023/07/19 03:36:03;;;;;;;5.00;4.03;;;24.70;57.80;;;;;;5013565;28;20443;-73
2023/07/19 03:38:32;;;;;;;4.13;3.83;;;24.70;57.80;;;;;;4997623;28;20616;-73
2023/07/19 03:41:09;;;;;;;4.60;4.20;;;24.70;57.80;;;;;;5028117;28;21026;-73
2023/07/19 03:43:39;;;;;;;4.33;4.03;;;24.60;57.70;;;;;;4982861;28;20420;-74
2023/07/19 03:46:05;;;;;;;7.00;4.30;;;24.70;57.80;;;;;;4992004;28;20469;-74
2023/07/19 03:48:37;;;;;;;4.30;4.00;;;24.60;57.70;;;;;;4992947;28;20787;-74
2023/07/19 03:51:04;;;;;;;4.50;4.10;;;24.60;57.80;;;;;;4977102;28;20433;-74
2023/07/19 03:53:32;;;;;;;4.03;3.70;;;24.60;57.80;;;;;;4993332;28;20448;-73
2023/07/19 03:56:03;;;;;;;3.97;3.67;;;24.60;57.80;;;;;;4996592;28;20431;-74
2023/07/19 03:58:34;;;;;;;4.20;3.90;;;24.60;57.80;;;;;;4996120;28;20929;-73
2023/07/19 04:01:03;;;;;;;4.40;4.03;;;24.50;57.80;;;;;;4993203;28;20509;-74
2023/07/19 04:03:29;;;;;;;4.33;4.00;;;24.50;57.80;;;;;;5005920;28;20427;-74
2023/07/19 04:05:58;;;;;;;4.23;3.83;;;24.50;57.80;;;;;;4996107;28;20961;-73
2023/07/19 04:08:25;;;;;;;4.57;4.20;;;24.50;57.90;;;;;;5012046;28;20438;-74
2023/07/19 04:10:51;;;;;;;4.20;3.90;;;24.50;57.90;;;;;;5011395;28;20439;-73
2023/07/19 04:13:20;;;;;;;5.23;4.10;;;24.50;57.90;;;;;;5028838;28;20458;-74
2023/07/19 04:15:49;;;;;;;5.00;4.00;;;24.50;58.00;;;;;;5012356;28;20447;-74
2023/07/19 04:18:17;;;;;;;4.53;4.17;;;24.50;58.00;;;;;;4995690;28;20766;-74
2023/07/19 04:20:44;;;;;;;3.93;3.63;;;24.40;57.90;;;;;;4989933;28;20448;-73
2023/07/19 04:23:10;;;;;;;4.60;4.20;;;24.40;58.00;;;;;;4976265;28;20463;-74
2023/07/19 04:25:40;;;;;;;3.83;3.53;;;24.40;58.00;;;;;;4992005;28;20425;-74
2023/07/19 04:28:08;;;;;;;4.47;4.07;;;24.40;58.10;;;;;;4992393;28;20449;-74
2023/07/19 04:30:34;;;;;;;5.27;3.53;;;24.40;58.10;;;;;;4976297;28;20468;-73
2023/07/19 04:33:00;;;;;;;5.30;4.20;;;24.40;58.10;;;;;;4977143;28;20424;-72
2023/07/19 04:35:27;;;;;;;3.80;3.50;;;24.40;58.10;;;;;;4977087;28;20424;-73
2023/07/19 04:37:53;;;;;;;4.50;3.90;;;24.30;58.10;;;;;;5009446;28;20806;-76
2023/07/19 04:40:24;;;;;;;3.97;3.67;;;24.40;58.20;;;;;;4978599;28;20844;-76
2023/07/19 04:42:53;;;;;;;4.17;3.77;;;24.30;58.20;;;;;;5012380;28;20415;-73
2023/07/19 04:45:20;;;;;;;4.20;3.90;;;24.30;58.30;;;;;;5010746;28;20502;-77
2023/07/19 04:47:49;;;;;;;4.00;3.70;;;24.30;58.30;;;;;;4992276;28;20540;-73
2023/07/19 04:50:15;;;;;;;4.90;4.40;;;24.30;58.40;;;;;;4976503;28;20852;-73
2023/07/19 04:52:46;;;;;;;4.10;3.80;;;24.30;58.40;;;;;;5001244;28;20423;-72
2023/07/19 04:55:12;;;;;;;4.87;4.17;;;24.30;58.50;;;;;;4996300;28;20433;-71
2023/07/19 04:57:41;;;;;;;4.90;4.40;;;24.30;58.50;;;;;;5012536;28;20506;-71
2023/07/19 05:00:11;;;;;;;4.63;4.23;;;24.30;58.60;;;;;;5028668;28;20858;-72
2023/07/19 05:02:44;;;;;;;5.43;3.80;;;24.20;58.60;;;;;;5028676;28;20415;-71
2023/07/19 05:05:12;;;;;;;4.43;4.07;;;24.20;58.60;;;;;;5012039;28;20420;-72
2023/07/19 05:07:38;;;;;;;4.83;4.43;;;24.20;58.80;;;;;;5012054;28;20426;-72
2023/07/19 05:10:08;;;;;;;4.50;3.70;;;24.20;58.80;;;;;;5029746;28;20467;-72
2023/07/19 05:12:34;;;;;;;4.80;3.77;;;24.20;58.80;;;;;;4995832;28;20434;-72
2023/07/19 05:15:00;;;;;;;4.83;3.90;;;24.20;58.90;;;;;;5011941;28;20479;-71
2023/07/19 05:17:29;;;;;;;7.63;4.40;;;24.20;58.90;;;;;;5012189;28;20500;-72
2023/07/19 05:19:59;;;;;;;7.07;4.60;;;24.20;58.90;;;;;;5012245;28;20411;-71
2023/07/19 05:22:28;;;;;;;4.20;3.80;;;24.20;59.10;;;;;;4979592;28;20561;-72
2023/07/19 05:24:54;;;;;;;4.37;3.97;;;24.20;59.20;;;;;;5028092;28;20412;-72
2023/07/19 05:27:20;;;;;;;5.27;3.80;;;24.20;59.20;;;;;;5011884;28;20425;-72
2023/07/19 05:29:49;;;;;;;4.80;4.20;;;24.20;59.30;;;;;;5029532;28;20493;-71
2023/07/19 05:32:15;;;;;;;4.20;3.90;;;24.20;59.30;;;;;;5011720;28;20925;-71
2023/07/19 05:34:41;;;;;;;4.63;4.00;;;24.10;59.30;;;;;;5011996;28;20470;-72
2023/07/19 05:37:10;;;;;;;6.70;4.10;;;24.10;59.30;;;;;;5012238;28;20511;-72
2023/07/19 05:39:36;;;;;;;4.63;4.20;;;24.10;59.40;;;;;;5011968;28;20783;-72
2023/07/19 05:42:06;;;;;;;5.50;4.37;;;24.10;59.50;;;;;;5029887;28;20450;-72
2023/07/19 05:44:35;;;;;;;4.17;3.87;;;24.10;59.50;;;;;;5011167;28;20434;-71
2023/07/19 05:47:01;;;;;;;4.50;4.10;;;24.10;59.60;;;;;;4995794;28;21008;-72
2023/07/19 05:49:27;;;;;;;5.60;4.17;;;24.10;59.70;;;;;;5011539;28;20542;-72
2023/07/19 05:51:55;;;;;;;5.33;4.13;;;24.10;59.80;;;;;;5011806;28;20546;-72
2023/07/19 05:54:23;;;;;;;5.27;4.80;;;24.10;59.80;;;;;;4995650;28;20988;-72
2023/07/19 05:56:49;;;;;;;4.17;3.53;;;24.10;60.00;;;;;;5011664;28;20420;-72
2023/07/19 05:59:18;;;;;;;7.80;4.07;;;24.10;59.90;;;;;;5032921;28;20423;-75
2023/07/19 06:01:51;;;;;;;4.67;3.57;;;24.10;59.90;;;;;;4998958;28;21269;-71
2023/07/19 06:04:20;;;;;;;5.40;4.90;;;24.10;59.70;;;;;;5014950;28;20481;-71
2023/07/19 06:06:49;;;;;;;6.50;4.00;;;24.10;60.20;;;;;;5015063;28;20487;-72
2023/07/19 06:09:18;;;;;;;4.93;4.43;;;24.10;59.90;;;;;;4997278;28;20479;-72
2023/07/19 06:11:46;;;;;;;4.60;4.13;;;24.10;59.90;;;;;;5023973;28;20431;-71
2023/07/19 06:14:16;;;;;;;4.97;3.87;;;24.10;60.10;;;;;;5032546;28;20421;-71
2023/07/19 06:16:42;;;;;;;5.80;3.77;;;24.10;60.30;;;;;;5031114;28;20411;-72
2023/07/19 06:19:16;;;;;;;4.60;4.10;;;24.10;60.10;;;;;;5032964;28;20424;-72
2023/07/19 06:21:42;;;;;;;4.90;4.50;;;24.10;60.10;;;;;;5000678;28;20436;-72
2023/07/19 06:24:08;;;;;;;6.73;4.93;;;24.10;60.30;;;;;;5012751;28;20423;-72
2023/07/19 06:26:39;;;;;;;5.40;4.53;;;24.10;60.50;;;;;;4994878;28;20493;-72
2023/07/19 06:29:11;;;;;;;7.30;4.40;;;24.10;60.40;;;;;;5007341;28;20896;-72
2023/07/19 06:31:37;;;;;;;4.90;4.50;;;24.00;60.40;;;;;;5032405;28;20439;-72
2023/07/19 06:34:03;;;;;;;5.37;4.57;;;24.10;60.30;;;;;;5031960;28;20462;-75
2023/07/19 06:36:29;;;;;;;4.43;4.03;;;24.00;60.40;;;;;;5023712;28;20460;-72
2023/07/19 06:38:58;;;;;;;4.70;4.30;;;24.10;60.50;;;;;;5008897;28;20205;-72
2023/07/19 06:41:32;;;;;;;4.43;4.03;;;24.10;60.60;;;;;;4982486;28;20479;-72
2023/07/19 06:44:00;;;;;;;5.20;4.63;;;24.00;60.50;;;;;;4996605;28;20459;-73
2023/07/19 06:46:26;;;;;;;4.30;3.97;;;24.00;60.50;;;;;;4997164;28;20918;-72
2023/07/19 06:48:52;;;;;;;5.43;4.30;;;24.00;60.70;;;;;;5030970;28;20470;-73
2023/07/19 06:51:20;;;;;;;4.80;4.00;;;24.00;60.70;;;;;;5029809;28;21205;-74
2023/07/19 06:53:49;;;;;;;5.00;4.40;;;24.00;60.70;;;;;;5005820;28;20464;-72
2023/07/19 06:56:17;;;;;;;8.00;4.87;;;24.00;60.50;;;;;;5005217;28;20453;-72
2023/07/19 06:58:43;;;;;;;5.30;4.30;;;24.00;60.60;;;;;;4993881;28;20456;-72
2023/07/19 07:01:09;;;;;;;5.50;4.23;;;24.00;60.30;;;;;;5009941;28;20416;-72
2023/07/19 07:03:35;;;;;;;5.00;4.10;;;24.00;60.10;;;;;;5004904;28;20205;-72
2023/07/19 07:06:01;;;;;;;4.30;3.80;;;24.00;60.50;;;;;;5013052;28;20415;-72
2023/07/19 07:08:29;;;;;;;5.03;4.53;;;24.00;60.40;;;;;;4979239;28;20460;-72
2023/07/19 07:10:55;;;;;;;5.50;4.83;;;24.00;60.40;;;;;;5014695;28;20463;-72
2023/07/19 07:13:23;;;;;;;6.53;5.00;;;24.00;60.30;;;;;;5000498;28;20428;-72
2023/07/19 07:15:51;;;;;;;4.47;4.07;;;24.00;60.40;;;;;;4993179;28;20441;-72
2023/07/19 07:18:19;;;;;;;5.23;4.80;;;23.90;60.30;;;;;;4960997;28;20550;-72
2023/07/19 07:20:51;;;;;;;4.50;4.10;;;24.00;60.30;;;;;;5011027;28;20461;-72
2023/07/19 07:23:20;;;;;;;5.10;4.60;;;23.90;60.10;;;;;;4997621;28;20997;-72
2023/07/19 07:25:50;;;;;;;4.30;3.90;;;24.00;60.30;;;;;;5025844;28;20994;-72
2023/07/19 07:28:20;;;;;;;4.90;4.40;;;24.00;60.30;;;;;;5005796;28;20443;-72
2023/07/19 07:30:47;;;;;;;4.43;4.03;;;24.00;60.20;;;;;;5012384;28;20471;-72
2023/07/19 07:33:19;;;;;;;4.60;4.20;;;23.90;60.00;;;;;;5010691;28;20470;-72
2023/07/19 07:35:46;;;;;;;4.83;4.17;;;23.90;60.20;;;;;;5012089;28;20431;-72
2023/07/19 07:38:12;;;;;;;4.50;4.10;;;23.90;60.20;;;;;;4995816;28;20892;-72
2023/07/19 07:40:40;;;;;;;4.60;4.20;;;24.00;60.40;;;;;;4981985;28;20428;-72
2023/07/19 07:43:07;;;;;;;4.80;4.40;;;24.00;60.30;;;;;;4997113;28;20448;-71
2023/07/19 07:45:33;;;;;;;4.13;3.83;;;24.00;60.40;;;;;;5010543;28;21102;-71
2023/07/19 07:47:59;;;;;;;6.80;4.50;;;23.90;60.30;;;;;;5011632;28;20916;-71
2023/07/19 07:50:25;;;;;;;6.27;4.67;;;24.00;60.50;;;;;;4976472;28;20501;-71
2023/07/19 07:52:51;;;;;;;5.03;4.30;;;24.00;60.30;;;;;;5020595;28;20431;-71
2023/07/19 07:55:17;;;;;;;4.47;4.07;;;23.90;60.20;;;;;;5011569;28;20465;-71
2023/07/19 07:57:45;;;;;;;4.27;3.97;;;24.00;60.40;;;;;;4995239;28;20900;-71
2023/07/19 08:00:15;;;;;;;4.60;4.20;;;23.90;60.30;;;;;;5009948;28;20530;-71
2023/07/19 08:02:41;;;;;;;4.50;4.10;;;24.00;60.30;;;;;;5002048;28;20446;-71
2023/07/19 08:05:07;;;;;;;4.97;4.47;;;24.00;60.20;;;;;;5029608;28;20443;-71
2023/07/19 08:07:33;;;;;;;6.30;4.67;;;24.00;60.20;;;;;;5010976;28;20513;-71
2023/07/19 08:09:59;;;;;;;4.63;4.00;;;24.00;60.20;;;;;;5026945;28;21205;-71
2023/07/19 08:12:25;;;;;;;4.20;3.70;;;23.90;60.00;;;;;;5022918;28;20173;-71
2023/07/19 08:14:51;;;;;;;4.07;3.77;;;24.00;60.10;;;;;;5004434;28;20434;-71
2023/07/19 08:17:17;;;;;;;6.07;4.20;;;24.00;60.10;;;;;;4995477;28;20436;-71
2023/07/19 08:19:43;;;;;;;5.00;4.50;;;23.90;60.10;;;;;;5012957;28;20946;-71
2023/07/19 08:22:24;;;;;;;5.63;4.10;;;24.00;60.20;;;;;;4992026;28;20428;-71
2023/07/19 08:24:50;;;;;;;5.40;3.90;;;24.00;60.40;;;;;;4991952;28;20436;-71
2023/07/19 08:27:16;;;;;;;4.63;4.23;;;24.00;60.30;;;;;;5005257;28;20427;-74
2023/07/19 08:29:43;;;;;;;4.30;3.90;;;24.00;60.40;;;;;;4979421;28;20990;-71
2023/07/19 08:32:09;;;;;;;5.93;4.33;;;24.00;60.40;;;;;;4991926;28;20205;-71
2023/07/19 08:34:35;;;;;;;4.13;3.83;;;24.00;60.40;;;;;;4991823;28;20872;-71
2023/07/19 08:37:07;;;;;;;4.57;4.00;;;24.00;60.50;;;;;;5003372;28;21170;-71
2023/07/19 08:39:33;;;;;;;5.43;4.37;;;24.00;60.20;;;;;;4996625;28;20829;-71
2023/07/19 08:42:03;;;;;;;4.40;3.73;;;24.00;60.30;;;;;;5009341;28;20439;-71
2023/07/19 08:44:30;;;;;;;4.20;3.90;;;24.00;60.30;;;;;;5010515;28;20436;-71
2023/07/19 08:47:01;;;;;;;4.70;3.70;;;24.00;60.30;;;;;;5000649;28;20527;-71
2023/07/19 08:49:27;;;;;;;4.70;3.90;;;24.00;60.40;;;;;;5021633;28;20811;-71
2023/07/19 08:51:53;;;;;;;4.43;3.90;;;24.00;60.50;;;;;;5010876;28;20431;-72
2023/07/19 08:54:21;;;;;;;5.30;4.23;;;24.00;60.70;;;;;;5027054;28;20451;-72
2023/07/19 08:56:50;;;;;;;4.93;4.53;;;24.00;60.90;;;;;;5001024;28;20428;-72
2023/07/19 08:59:21;;;;;;;6.60;3.80;;;24.00;61.00;;;;;;5033499;28;20451;-72
2023/07/19 09:01:49;;;;;;;4.40;4.00;;;24.00;61.00;;;;;;5009409;28;20462;-72
2023/07/19 09:04:17;;;;;;;4.53;3.70;;;24.00;61.00;;;;;;5009490;28;20427;-72
2023/07/19 09:06:43;;;;;;;4.07;3.77;;;24.00;61.00;;;;;;4992413;28;21218;-72
2023/07/19 09:09:13;;;;;;;4.93;3.87;;;24.00;61.20;;;;;;4998859;28;20803;-72
2023/07/19 09:11:46;;;;;;;3.90;3.60;;;24.10;61.50;;;;;;5091597;23;20498;-74
2023/07/19 09:14:15;;;;;;;4.30;4.00;;;24.10;61.70;;;;;;5050862;28;20398;-73
2023/07/19 09:16:41;;;;;;;8.20;4.50;;;24.10;61.60;;;;;;5049529;28;20498;-72
2023/07/19 09:19:10;;;;;;;4.50;4.10;;;24.10;62.00;;;;;;5049772;28;20446;-72
2023/07/19 09:21:45;;;;;;;4.97;3.90;;;24.10;61.90;;;;;;5050634;28;20401;-73
2023/07/19 09:24:14;;;;;;;4.13;3.83;;;24.00;62.00;;;;;;5049614;28;20457;-72
2023/07/19 09:26:50;;;;;;;3.90;3.60;;;24.10;62.40;;;;;;5049475;28;20395;-72
2023/07/19 09:29:18;;;;;;;4.60;4.20;;;24.00;62.20;;;;;;5003975;28;20459;-72
2023/07/19 09:31:54;;;;;;;4.03;3.47;;;24.10;62.20;;;;;;5028958;28;20431;-72
2023/07/19 09:34:33;;;;;;;5.57;4.00;;;24.10;62.20;;;;;;4996355;28;21065;-73
2023/07/19 09:37:00;;;;;;;4.77;3.80;;;24.10;62.50;;;;;;5030344;28;20815;-73
2023/07/19 09:39:26;;;;;;;3.90;3.60;;;24.10;62.40;;;;;;5012552;28;20447;-73
2023/07/19 09:41:57;;;;;;;4.30;3.90;;;24.10;62.90;;;;;;5045454;28;20410;-72
2023/07/19 09:44:25;;;;;;;4.57;4.17;;;24.10;62.70;;;;;;5012480;28;20482;-73
2023/07/19 09:46:53;;;;;;;4.87;4.20;;;24.10;62.80;;;;;;5029020;28;20442;-73
2023/07/19 09:49:23;;;;;;;6.10;4.47;;;24.10;62.80;;;;;;5012191;28;20677;-73
2023/07/19 09:51:54;;;;;;;4.20;3.90;;;24.10;62.80;;;;;;5030100;28;20435;-74
2023/07/19 09:54:24;;;;;;;6.13;4.20;;;24.10;62.80;;;;;;5029985;28;20415;-77
2023/07/19 09:56:50;;;;;;;5.33;4.00;;;24.10;63.00;;;;;;5028803;28;20551;-74
2023/07/19 09:59:22;;;;;;;9.00;4.63;;;24.10;62.80;;;;;;5028852;28;20489;-73
2023/07/19 10:01:51;;;;;;;4.97;4.47;;;24.10;63.00;;;;;;5030189;28;20416;-76
2023/07/19 10:04:24;;;;;;;3.97;3.60;;;24.10;62.90;;;;;;5028828;28;21063;-75
2023/07/19 10:07:15;;;;;;;4.80;4.30;;;24.10;62.70;;;;;;5036397;28;20441;-73
2023/07/19 10:09:48;;;;;;;4.50;3.83;;;24.20;62.80;;;;;;5048502;28;20611;-74
2023/07/19 10:12:16;;;;;;;3.70;3.40;;;24.20;62.90;;;;;;5032720;28;20533;-74
2023/07/19 10:14:56;;;;;;;4.53;4.17;;;24.10;62.50;;;;;;5032288;28;20418;-74
2023/07/19 10:17:25;;;;;;;6.00;3.70;;;24.10;62.80;;;;;;5032074;28;20422;-75
2023/07/19 10:20:14;;;;;;;7.47;4.23;;;24.20;62.80;;;;;;5031814;28;20487;-73
2023/07/19 10:22:50;;;;;;;4.97;3.53;;;24.20;62.80;;;;;;5031635;28;20528;-76
2023/07/19 10:25:33;;;;;;;5.13;4.73;;;24.20;62.60;;;;;;5049245;28;20446;-77
2023/07/19 10:28:10;;;;;;;5.20;4.10;;;24.20;62.50;;;;;;5042987;28;20935;-77
2023/07/19 10:30:48;;;;;;;4.20;3.80;;;24.20;62.40;;;;;;5029653;28;20818;-78
2023/07/19 10:33:25;;;;;;;5.37;4.27;;;24.20;62.40;;;;;;5047903;28;20427;-77
2023/07/19 10:36:05;;;;;;;4.23;3.83;;;24.20;62.30;;;;;;5049257;28;20468;-77
2023/07/19 10:38:32;;;;;;;7.07;3.97;;;24.20;62.20;;;;;;5049624;28;20458;-76
2023/07/19 10:41:12;;;;;;;4.60;3.97;;;24.20;62.30;;;;;;5049442;28;20803;-75
2023/07/19 10:43:40;;;;;;;10.17;4.07;;;24.20;62.10;;;;;;5047258;28;20488;-75
2023/07/19 10:46:12;;;;;;;5.60;3.80;;;24.20;62.10;;;;;;5033697;28;20469;-75
2023/07/19 10:48:41;;;;;;;4.10;3.70;;;24.30;62.10;;;;;;5034345;28;21531;-75
2023/07/19 10:51:10;;;;;;;4.60;4.20;;;24.20;61.90;;;;;;5034208;28;20477;-75
2023/07/19 10:53:59;;;;;;;4.60;4.00;;;24.30;62.30;;;;;;5050396;28;20414;-75
2023/07/19 10:56:26;;;;;;;4.60;4.00;;;24.30;62.20;;;;;;5033300;28;20538;-74
2023/07/19 10:58:57;;;;;;;5.83;4.13;;;24.30;62.20;;;;;;5026882;28;20431;-74
2023/07/19 11:01:23;;;;;;;4.93;4.27;;;24.30;62.10;;;;;;5042193;28;20427;-75
2023/07/19 11:03:51;;;;;;;4.30;3.90;;;24.30;62.20;;;;;;5034071;28;20403;-75
2023/07/19 11:06:17;;;;;;;4.57;3.80;;;24.30;62.20;;;;;;5051917;28;20881;-74
2023/07/19 11:08:48;;;;;;;4.77;4.10;;;24.30;61.80;;;;;;5050459;28;20512;-75
2023/07/19 11:11:15;;;;;;;6.43;4.07;;;24.40;61.80;;;;;;5039853;28;20431;-74
2023/07/19 11:13:47;;;;;;;6.63;4.30;;;24.40;61.60;;;;;;5024162;28;20435;-75
2023/07/19 11:16:13;;;;;;;4.80;4.40;;;24.40;61.60;;;;;;5013472;28;20451;-75
2023/07/19 11:18:40;;;;;;;4.70;4.30;;;24.40;61.50;;;;;;5049778;28;20486;-75
2023/07/19 11:21:11;;;;;;;5.13;4.40;;;24.40;61.30;;;;;;5029709;28;20436;-74
2023/07/19 11:23:44;;;;;;;6.30;4.40;;;24.40;61.20;;;;;;5030658;28;20408;-75
2023/07/19 11:26:12;;;;;;;4.60;4.20;;;24.40;61.00;;;;;;5006394;28;20483;-76
2023/07/19 11:28:50;;;;;;;3.80;3.50;;;24.50;60.80;;;;;;5033001;28;20462;-75
2023/07/19 11:31:38;;;;;;;4.10;3.73;;;24.50;60.70;;;;;;5049123;28;20413;-75
2023/07/19 11:34:11;;;;;;;4.10;3.70;;;24.50;60.70;;;;;;5048861;28;20425;-75
2023/07/19 11:36:45;;;;;;;3.70;3.40;;;24.50;60.60;;;;;;5030044;28;20444;-74
2023/07/19 11:39:22;;;;;;;4.10;3.70;;;24.50;60.50;;;;;;5034497;28;20920;-76
2023/07/19 11:41:48;;;;;;;4.27;3.97;;;24.50;60.30;;;;;;5049456;28;20433;-75
2023/07/19 11:44:23;;;;;;;4.20;3.80;;;24.50;60.20;;;;;;5049377;28;20438;-75
2023/07/19 11:46:55;;;;;;;4.30;3.80;;;24.60;60.00;;;;;;5033352;28;20964;-74
2023/07/19 11:49:21;;;;;;;3.97;3.67;;;24.60;59.80;;;;;;5016513;28;20503;-75
2023/07/19 11:51:49;;;;;;;3.30;3.10;;;24.60;59.40;;;;;;5034543;28;20477;-76
2023/07/19 11:54:16;;;;;;;3.80;3.50;;;24.60;59.40;;;;;;5033516;28;20407;-76
2023/07/19 11:56:44;;;;;;;4.17;3.43;;;24.70;59.30;;;;;;5048985;28;20211;-76
2023/07/19 11:59:10;;;;;;;3.43;3.13;;;24.70;59.10;;;;;;5029010;28;20463;-76
2023/07/19 12:01:39;;;;;;;3.60;3.30;;;24.70;59.10;;;;;;5049716;28;20172;-76
2023/07/19 12:04:06;;;;;;;3.93;3.70;;;24.70;59.00;;;;;;5049018;28;20416;-77
2023/07/19 12:06:35;;;;;;;3.57;3.27;;;24.70;58.90;;;;;;5030961;28;20412;-76
2023/07/19 12:09:04;;;;;;;5.20;3.63;;;24.80;58.90;;;;;;5027974;28;20444;-73
2023/07/19 12:11:30;;;;;;;3.43;3.10;;;24.80;59.50;;;;;;5038139;28;20479;-76
2023/07/19 12:13:58;;;;;;;4.47;3.27;;;24.80;58.90;;;;;;5027664;28;20458;-75
2023/07/19 12:16:27;;;;;;;4.23;3.83;;;24.80;58.90;;;;;;5012508;28;20542;-75
2023/07/19 12:18:53;;;;;;;3.80;3.50;;;24.90;59.10;;;;;;5029662;28;20431;-75
2023/07/19 12:21:22;;;;;;;3.83;3.50;;;24.90;59.10;;;;;;5035827;28;20686;-76
2023/07/19 12:23:55;;;;;;;4.20;3.90;;;24.90;59.10;;;;;;5048170;28;20866;-76
2023/07/19 12:26:23;;;;;;;4.27;3.87;;;25.00;59.10;;;;;;5048017;28;20398;-76
2023/07/19 12:28:49;;;;;;;3.67;3.33;;;25.00;59.20;;;;;;5049283;28;20544;-75
2023/07/19 12:31:17;;;;;;;4.40;3.80;;;25.00;59.10;;;;;;5047277;28;20450;-74
2023/07/19 12:33:49;;;;;;;4.00;3.70;;;25.00;59.10;;;;;;5025390;28;20490;-76
2023/07/19 12:36:17;;;;;;;4.47;3.70;;;25.00;59.10;;;;;;5028621;28;20725;-76
2023/07/19 12:38:45;;;;;;;3.60;3.30;;;25.10;59.20;;;;;;5042314;28;20454;-76
2023/07/19 12:41:11;;;;;;;3.90;3.60;;;25.10;59.20;;;;;;5011885;28;20451;-76
2023/07/19 12:43:37;;;;;;;3.93;3.60;;;25.10;59.20;;;;;;5030063;28;20494;-76
2023/07/19 12:46:03;;;;;;;4.30;3.60;;;25.10;59.30;;;;;;4996158;28;20260;-76
2023/07/19 12:48:29;;;;;;;4.20;3.90;;;25.20;59.80;;;;;;4997275;28;20459;-74
2023/07/19 12:51:04;;;;;;;4.70;4.20;;;25.20;59.30;;;;;;5045523;28;20459;-76
2023/07/19 12:53:30;;;;;;;5.10;3.80;;;25.20;59.30;;;;;;5048250;28;20454;-76
2023/07/19 12:55:56;;;;;;;4.10;3.70;;;25.20;59.30;;;;;;5016064;28;20510;-76
2023/07/19 12:58:24;;;;;;;4.77;3.80;;;25.20;59.30;;;;;;5029285;28;20450;-76